Time;durP1;ratioP1;P1;durP2;ratioP2;P2;SDS_P1;SDS_P2;PMS_P1;PMS_P2;Temp;Humidity;BMP_temperature;BMP_pressure;BME280_temperature;BME280_humidity;BME280_pressure;Samples;Min_cycle;Max_cycle;Signal;HPM_P1;HPM_P2
2022/01/30 00:00:26;;;;;;;6.45;1.05;;;28.80;99.90;;;;;;5087065;28;20192;-76
2022/01/30 00:02:59;;;;;;;7.28;1.10;;;28.60;99.90;;;;;;5089471;28;20212;-77
2022/01/30 00:05:30;;;;;;;6.53;1.40;;;28.60;99.90;;;;;;5080910;28;20674;-77
2022/01/30 00:08:01;;;;;;;10.02;1.40;;;28.40;99.90;;;;;;5076295;28;20236;-76
2022/01/30 00:10:37;;;;;;;9.40;1.15;;;28.10;99.90;;;;;;5079491;28;20181;-78
2022/01/30 00:13:10;;;;;;;7.28;1.17;;;27.90;99.90;;;;;;5077086;28;20309;-77
2022/01/30 00:15:44;;;;;;;7.90;1.20;;;27.80;99.90;;;;;;5074843;28;20597;-75
2022/01/30 00:18:36;;;;;;;4.22;0.98;;;27.90;99.90;;;;;;5074734;28;20193;-76
2022/01/30 00:21:11;;;;;;;7.43;1.15;;;28.00;99.90;;;;;;5077878;28;20287;-77
2022/01/30 00:23:47;;;;;;;15.07;1.67;;;28.00;99.90;;;;;;5076484;28;20223;-79
2022/01/30 00:26:19;;;;;;;7.07;1.00;;;28.10;99.90;;;;;;5076335;28;20193;-79
2022/01/30 00:28:50;;;;;;;7.60;1.25;;;28.20;99.90;;;;;;5080035;28;20196;-79
2022/01/30 00:31:21;;;;;;;5.45;1.23;;;28.50;99.90;;;;;;5081147;28;20251;-78
2022/01/30 00:33:54;;;;;;;8.02;1.25;;;28.70;99.90;;;;;;5077224;28;20601;-77
2022/01/30 00:36:25;;;;;;;5.20;1.27;;;28.70;99.90;;;;;;5076017;28;20275;-80
2022/01/30 00:38:55;;;;;;;7.05;1.23;;;28.70;99.90;;;;;;5075710;28;20193;-78
2022/01/30 00:41:26;;;;;;;7.10;1.42;;;28.60;99.90;;;;;;5084645;28;20582;-77
2022/01/30 00:43:57;;;;;;;13.73;1.80;;;28.40;99.90;;;;;;5075899;28;20562;-78
2022/01/30 00:46:27;;;;;;;7.32;1.30;;;28.40;99.90;;;;;;5075406;28;20246;-78
2022/01/30 00:49:00;;;;;;;8.27;1.58;;;28.40;99.90;;;;;;5077619;28;20698;-78
2022/01/30 00:51:31;;;;;;;5.20;1.40;;;28.20;99.90;;;;;;5075505;28;20193;-78
2022/01/30 00:54:01;;;;;;;4.68;0.93;;;28.40;99.90;;;;;;5076796;28;20702;-76
2022/01/30 00:56:32;;;;;;;7.38;1.25;;;28.70;99.90;;;;;;5085168;28;20282;-79
2022/01/30 00:59:03;;;;;;;11.27;1.60;;;28.90;99.90;;;;;;5077009;28;20189;-77
2022/01/30 01:01:34;;;;;;;6.65;1.30;;;28.60;99.90;;;;;;5076199;28;20189;-78
2022/01/30 01:04:06;;;;;;;5.82;1.30;;;28.60;99.90;;;;;;5080426;28;20266;-78
2022/01/30 01:06:38;;;;;;;5.93;1.20;;;28.70;99.90;;;;;;5075314;28;20234;-79
2022/01/30 01:09:11;;;;;;;9.10;1.30;;;29.10;99.90;;;;;;5083064;28;20189;-76
2022/01/30 01:12:24;;;;;;;6.65;1.20;;;29.40;99.90;;;;;;5091582;28;20180;-81
2022/01/30 01:23:30;;;;;;;7.72;1.25;;;29.50;99.90;;;;;;5082897;28;20680;-78
2022/01/30 01:26:02;;;;;;;4.55;1.05;;;29.50;99.90;;;;;;5076088;28;20248;-76
2022/01/30 01:28:32;;;;;;;6.30;1.20;;;29.50;99.90;;;;;;5074756;28;20633;-76
2022/01/30 01:31:04;;;;;;;8.80;1.35;;;29.10;99.90;;;;;;5075048;28;20552;-79
2022/01/30 01:33:44;;;;;;;7.57;1.50;;;29.00;99.90;;;;;;5085119;28;20204;-77
2022/01/30 01:36:16;;;;;;;6.95;1.20;;;28.80;99.90;;;;;;5077888;28;20190;-78
2022/01/30 01:38:47;;;;;;;5.55;1.33;;;28.60;99.90;;;;;;5074274;28;20181;-79
2022/01/30 01:41:20;;;;;;;5.97;1.60;;;28.40;99.90;;;;;;5075907;28;20185;-79
2022/01/30 01:43:52;;;;;;;8.15;1.30;;;28.30;99.90;;;;;;5082526;28;20204;-76
2022/01/30 01:46:26;;;;;;;5.55;1.50;;;28.00;99.90;;;;;;5074667;28;20184;-76
2022/01/30 01:48:57;;;;;;;4.63;1.20;;;28.00;99.90;;;;;;5074568;28;20195;-77
2022/01/30 01:51:32;;;;;;;6.93;1.10;;;27.90;99.90;;;;;;5082504;28;20189;-77
2022/01/30 01:54:03;;;;;;;5.18;1.10;;;27.80;99.90;;;;;;5074347;28;20226;-77
2022/01/30 01:56:34;;;;;;;6.35;1.08;;;27.70;99.90;;;;;;5086121;28;20228;-76
2022/01/30 01:59:05;;;;;;;6.05;1.10;;;27.80;99.90;;;;;;5079000;28;20201;-78
2022/01/30 02:01:35;;;;;;;5.30;1.23;;;27.90;99.90;;;;;;5074176;28;20189;-77
2022/01/30 02:04:06;;;;;;;6.30;1.10;;;27.90;99.90;;;;;;5077632;28;20221;-78
2022/01/30 02:06:39;;;;;;;6.15;1.52;;;27.90;99.90;;;;;;5086234;28;20192;-77
2022/01/30 02:09:12;;;;;;;8.63;1.48;;;28.10;99.90;;;;;;5090866;28;20553;-76
2022/01/30 02:11:46;;;;;;;6.25;0.88;;;28.20;99.90;;;;;;5081346;28;20188;-77
2022/01/30 02:14:35;;;;;;;5.90;1.00;;;28.30;99.90;;;;;;5075008;28;20192;-76
2022/01/30 02:25:38;;;;;;;6.45;1.27;;;28.30;99.90;;;;;;5079913;28;20223;-73
2022/01/30 02:28:13;;;;;;;7.10;1.42;;;28.20;99.90;;;;;;5089599;28;20354;-75
2022/01/30 02:30:50;;;;;;;8.10;1.10;;;28.40;99.90;;;;;;5084021;28;20632;-73
2022/01/30 02:33:23;;;;;;;6.30;1.20;;;28.40;99.90;;;;;;5076852;28;20199;-76
2022/01/30 02:35:54;;;;;;;4.80;1.10;;;28.20;99.90;;;;;;5080847;28;20219;-76
2022/01/30 02:38:27;;;;;;;5.25;0.93;;;28.20;99.90;;;;;;5081499;28;20189;-76
2022/01/30 02:40:58;;;;;;;4.63;0.80;;;28.20;99.90;;;;;;5075223;28;20637;-73
2022/01/30 02:43:33;;;;;;;5.40;0.70;;;28.30;99.90;;;;;;5073629;28;20224;-75
2022/01/30 02:46:09;;;;;;;4.13;1.00;;;28.30;99.90;;;;;;5083119;28;20194;-78
2022/01/30 02:48:51;;;;;;;6.55;1.20;;;28.30;99.90;;;;;;5073510;28;20195;-73
2022/01/30 02:51:23;;;;;;;6.00;0.95;;;28.40;99.90;;;;;;5083743;28;20197;-73
2022/01/30 02:54:03;;;;;;;6.88;1.20;;;28.70;99.90;;;;;;5089054;28;20199;-76
2022/01/30 02:56:34;;;;;;;7.25;1.17;;;28.70;99.90;;;;;;5080007;28;20685;-74
2022/01/30 02:59:05;;;;;;;8.13;1.15;;;28.50;99.90;;;;;;5080597;28;20390;-75
2022/01/30 03:01:35;;;;;;;6.60;1.20;;;28.20;99.90;;;;;;5076878;28;20645;-73
2022/01/30 03:04:10;;;;;;;6.47;1.10;;;28.10;99.90;;;;;;5080508;28;20246;-76
2022/01/30 03:06:41;;;;;;;8.63;2.20;;;28.20;99.90;;;;;;5084054;28;20279;-77
2022/01/30 03:09:14;;;;;;;7.95;1.50;;;28.50;99.90;;;;;;5082941;28;20196;-79
2022/01/30 03:11:44;;;;;;;5.57;1.02;;;28.40;99.90;;;;;;5083417;28;20193;-77
2022/01/30 03:14:15;;;;;;;6.15;1.20;;;28.40;99.90;;;;;;5084729;28;20189;-78
2022/01/30 03:16:47;;;;;;;6.05;1.25;;;28.60;99.90;;;;;;5079253;28;20551;-79
2022/01/30 03:19:17;;;;;;;6.93;1.20;;;28.50;99.90;;;;;;5073487;28;20204;-76
2022/01/30 03:21:48;;;;;;;9.43;1.33;;;28.50;99.90;;;;;;5076319;28;20201;-76
2022/01/30 03:24:21;;;;;;;6.65;1.27;;;28.30;99.90;;;;;;5075990;28;20691;-76
2022/01/30 03:26:52;;;;;;;7.85;1.13;;;28.50;99.90;;;;;;5080406;28;20238;-75
2022/01/30 03:29:22;;;;;;;7.53;1.40;;;28.40;99.90;;;;;;5083932;28;20189;-75
2022/01/30 03:31:53;;;;;;;8.95;1.20;;;28.40;99.90;;;;;;5090460;28;20191;-75
2022/01/30 03:34:24;;;;;;;6.72;1.33;;;28.40;99.90;;;;;;5083682;28;20641;-78
2022/01/30 03:36:55;;;;;;;4.10;1.00;;;28.50;99.90;;;;;;5079585;28;20196;-73
2022/01/30 03:39:27;;;;;;;8.02;1.30;;;28.50;99.90;;;;;;5072336;28;20189;-77
2022/01/30 03:41:58;;;;;;;6.32;1.10;;;28.60;99.90;;;;;;5076656;28;20196;-72
2022/01/30 03:44:29;;;;;;;5.80;0.93;;;28.60;99.90;;;;;;5081705;28;20576;-76
2022/01/30 03:46:59;;;;;;;7.72;1.30;;;28.50;99.90;;;;;;5084236;28;20528;-76
2022/01/30 03:49:31;;;;;;;5.32;0.98;;;28.40;99.90;;;;;;5082900;28;20238;-73
2022/01/30 03:52:01;;;;;;;6.05;1.20;;;28.50;99.90;;;;;;5079463;28;20189;-78
2022/01/30 03:54:34;;;;;;;6.90;1.00;;;28.30;99.90;;;;;;5083875;28;20701;-76
2022/01/30 03:57:05;;;;;;;6.40;1.17;;;28.20;99.90;;;;;;5082702;28;20720;-73
2022/01/30 03:59:36;;;;;;;7.40;1.20;;;28.10;99.90;;;;;;5080525;28;20189;-73
2022/01/30 04:02:07;;;;;;;7.00;1.25;;;28.20;99.90;;;;;;5075796;28;20254;-78
2022/01/30 04:04:38;;;;;;;8.15;1.48;;;28.20;99.90;;;;;;5076144;28;20213;-77
2022/01/30 04:07:09;;;;;;;9.20;1.60;;;28.30;99.90;;;;;;5076460;28;20636;-75
2022/01/30 04:09:42;;;;;;;7.55;1.20;;;28.30;99.90;;;;;;5085972;28;20298;-75
2022/01/30 04:12:14;;;;;;;6.38;1.10;;;28.20;99.90;;;;;;5072610;28;20189;-75
2022/01/30 04:14:45;;;;;;;10.50;1.40;;;28.30;99.90;;;;;;5080209;28;20200;-72
2022/01/30 04:17:16;;;;;;;7.05;1.10;;;28.30;99.90;;;;;;5077427;28;20197;-73
2022/01/30 04:19:47;;;;;;;7.65;1.58;;;28.10;99.90;;;;;;5078245;28;20189;-75
2022/01/30 04:22:18;;;;;;;4.47;0.98;;;28.40;99.90;;;;;;5082072;28;20195;-77
2022/01/30 04:24:51;;;;;;;7.82;1.10;;;28.10;99.90;;;;;;5078084;28;20618;-76
2022/01/30 04:27:22;;;;;;;7.75;1.35;;;28.00;99.90;;;;;;5081149;28;20185;-77
2022/01/30 04:29:53;;;;;;;6.93;1.35;;;28.00;99.90;;;;;;5081618;28;20541;-78
2022/01/30 04:32:25;;;;;;;7.32;1.42;;;28.10;99.90;;;;;;5081411;28;20240;-75
2022/01/30 04:34:59;;;;;;;6.80;0.95;;;28.10;99.90;;;;;;5077164;28;20181;-73
2022/01/30 04:37:40;;;;;;;7.85;1.20;;;28.30;99.90;;;;;;5088961;28;20195;-73
2022/01/30 04:40:35;;;;;;;4.32;1.05;;;28.40;99.90;;;;;;5082492;28;20238;-73
2022/01/30 04:55:13;;;;;;;6.30;1.20;;;28.20;99.90;;;;;;5066019;28;20203;-74
2022/01/30 05:03:30;;;;;;;8.65;1.45;;;28.00;99.90;;;;;;5087059;28;20202;-73
2022/01/30 05:06:04;;;;;;;10.77;1.33;;;27.90;99.90;;;;;;5089082;28;20231;-74
2022/01/30 05:08:36;;;;;;;5.60;1.17;;;27.90;99.90;;;;;;5079614;28;20184;-73
2022/01/30 05:11:08;;;;;;;7.47;1.60;;;27.70;99.90;;;;;;5078664;28;20193;-73
2022/01/30 05:13:46;;;;;;;5.93;1.00;;;27.60;99.90;;;;;;5084036;28;20215;-73
2022/01/30 05:16:17;;;;;;;8.27;1.30;;;27.80;99.90;;;;;;5084319;28;20192;-73
2022/01/30 05:18:48;;;;;;;5.53;1.52;;;27.80;99.90;;;;;;5089442;28;20199;-72
2022/01/30 05:21:20;;;;;;;7.35;1.50;;;27.70;99.90;;;;;;5088555;28;20193;-73
2022/01/30 05:23:51;;;;;;;7.75;1.50;;;27.60;99.90;;;;;;5091128;28;20196;-73
2022/01/30 05:26:27;;;;;;;7.72;1.40;;;27.50;99.90;;;;;;5083856;28;20217;-73
2022/01/30 05:29:00;;;;;;;6.95;1.35;;;27.40;99.90;;;;;;5082730;28;20253;-73
2022/01/30 05:31:30;;;;;;;8.02;1.40;;;27.30;99.90;;;;;;5083177;28;20180;-72
2022/01/30 05:34:02;;;;;;;8.93;1.27;;;27.20;99.90;;;;;;5083199;28;20189;-73
2022/01/30 05:36:34;;;;;;;6.53;1.30;;;27.30;99.90;;;;;;5085919;28;20640;-73
2022/01/30 05:39:05;;;;;;;5.75;0.98;;;27.30;99.90;;;;;;5084135;28;20263;-74
2022/01/30 05:41:36;;;;;;;7.90;1.63;;;27.40;99.90;;;;;;5081131;28;20648;-73
2022/01/30 05:44:12;;;;;;;7.88;1.40;;;27.40;99.90;;;;;;5078815;28;20578;-71
2022/01/30 05:46:49;;;;;;;5.70;1.20;;;27.40;99.90;;;;;;5082484;28;20188;-74
2022/01/30 05:49:20;;;;;;;8.07;1.10;;;27.40;99.90;;;;;;5084616;28;20188;-72
2022/01/30 05:51:50;;;;;;;8.70;1.30;;;27.30;99.90;;;;;;5079532;28;20189;-73
2022/01/30 05:54:21;;;;;;;5.22;1.10;;;27.30;99.90;;;;;;5078537;28;20202;-72
2022/01/30 05:56:52;;;;;;;7.72;1.45;;;27.30;99.90;;;;;;5085523;28;20903;-73
2022/01/30 05:59:25;;;;;;;6.72;1.40;;;27.40;99.90;;;;;;5078173;28;20611;-73
2022/01/30 06:01:55;;;;;;;6.63;1.10;;;27.40;99.90;;;;;;5090187;28;20181;-73
2022/01/30 06:04:26;;;;;;;8.45;1.20;;;27.40;99.90;;;;;;5084773;28;20189;-74
2022/01/30 06:06:58;;;;;;;7.20;1.10;;;27.30;99.90;;;;;;5083792;28;20204;-72
2022/01/30 06:09:28;;;;;;;6.35;1.15;;;27.20;99.90;;;;;;5078537;28;20651;-74
2022/01/30 06:11:59;;;;;;;5.70;1.20;;;27.20;99.90;;;;;;5092938;28;20195;-74
2022/01/30 06:14:31;;;;;;;6.85;1.30;;;27.10;99.90;;;;;;5075024;28;20189;-73
2022/01/30 06:17:02;;;;;;;5.95;1.17;;;27.00;99.90;;;;;;5083045;28;20185;-72
2022/01/30 06:19:33;;;;;;;7.10;1.50;;;27.00;99.90;;;;;;5076567;28;20193;-74
2022/01/30 06:22:03;;;;;;;7.18;1.13;;;27.00;99.90;;;;;;5083306;28;20253;-72
2022/01/30 06:24:34;;;;;;;4.85;1.27;;;26.90;99.90;;;;;;5083182;28;20247;-73
2022/01/30 06:27:05;;;;;;;6.57;1.45;;;27.10;99.90;;;;;;5088379;28;20185;-72
2022/01/30 06:29:37;;;;;;;5.03;1.30;;;27.20;99.90;;;;;;5085249;28;20189;-72
2022/01/30 06:32:09;;;;;;;8.00;1.50;;;27.10;99.90;;;;;;5088498;28;20658;-73
2022/01/30 06:34:39;;;;;;;6.50;1.40;;;27.20;99.90;;;;;;5076639;28;20582;-73
2022/01/30 06:37:10;;;;;;;7.15;1.30;;;27.10;99.90;;;;;;5079269;28;20214;-72
2022/01/30 06:39:41;;;;;;;5.72;0.98;;;27.00;99.90;;;;;;5075939;28;20190;-73
2022/01/30 06:42:11;;;;;;;6.97;1.40;;;27.00;99.90;;;;;;5073146;28;20189;-74
2022/01/30 06:44:45;;;;;;;8.30;1.40;;;27.00;99.90;;;;;;5074482;28;20569;-73
2022/01/30 06:47:16;;;;;;;7.38;1.20;;;27.00;99.90;;;;;;5075460;28;20189;-74
2022/01/30 06:49:47;;;;;;;7.28;1.42;;;26.90;99.90;;;;;;5079004;28;20186;-73
2022/01/30 06:52:17;;;;;;;7.13;1.50;;;26.80;99.90;;;;;;5074299;28;20199;-74
2022/01/30 06:54:48;;;;;;;8.35;1.38;;;26.60;99.90;;;;;;5087354;28;20196;-74
2022/01/30 06:57:18;;;;;;;10.65;1.40;;;26.50;99.90;;;;;;5083586;28;20234;-74
2022/01/30 06:59:51;;;;;;;5.43;1.38;;;26.50;99.90;;;;;;5081857;28;20657;-73
2022/01/30 07:02:22;;;;;;;8.85;1.58;;;26.50;99.90;;;;;;5076577;28;20705;-73
2022/01/30 07:04:52;;;;;;;9.65;1.42;;;26.50;99.90;;;;;;5072633;28;20667;-73
2022/01/30 07:07:24;;;;;;;5.30;1.20;;;26.60;99.90;;;;;;5072675;28;20271;-73
2022/01/30 07:10:10;;;;;;;6.88;1.40;;;26.60;99.90;;;;;;5076497;28;20286;-72
2022/01/30 07:12:40;;;;;;;8.82;1.30;;;26.60;99.90;;;;;;5087112;28;20647;-74
2022/01/30 07:15:14;;;;;;;7.35;1.30;;;26.60;99.90;;;;;;5074155;28;20205;-73
2022/01/30 07:17:44;;;;;;;7.50;1.40;;;26.70;99.90;;;;;;5076486;28;20684;-73
2022/01/30 07:20:15;;;;;;;7.10;1.42;;;26.70;99.90;;;;;;5079659;28;20192;-73
2022/01/30 07:22:46;;;;;;;4.93;0.88;;;26.70;99.90;;;;;;5075649;28;20193;-73
2022/01/30 07:25:16;;;;;;;7.28;1.20;;;26.60;99.90;;;;;;5075609;28;20216;-71
2022/01/30 07:27:47;;;;;;;7.82;1.42;;;26.60;99.90;;;;;;5080085;28;20185;-72
2022/01/30 07:30:20;;;;;;;5.20;1.30;;;26.50;99.90;;;;;;5073349;28;20193;-73
2022/01/30 07:32:50;;;;;;;4.93;1.08;;;26.60;99.90;;;;;;5073458;28;20191;-72
2022/01/30 07:35:21;;;;;;;9.65;1.17;;;26.50;99.90;;;;;;5075623;28;20249;-73
2022/01/30 07:37:52;;;;;;;9.48;1.20;;;26.50;99.90;;;;;;5086189;28;20200;-72
2022/01/30 07:40:23;;;;;;;10.75;1.40;;;26.50;99.90;;;;;;5074342;28;20191;-73
2022/01/30 07:42:53;;;;;;;7.45;0.95;;;26.50;99.90;;;;;;5072939;28;20199;-72
2022/01/30 07:45:26;;;;;;;8.90;1.30;;;26.40;99.90;;;;;;5077118;28;20213;-73
2022/01/30 07:47:57;;;;;;;7.88;1.30;;;26.30;99.90;;;;;;5076874;28;20635;-72
2022/01/30 07:50:27;;;;;;;11.05;1.58;;;26.20;99.90;;;;;;5082827;28;20193;-73
2022/01/30 07:52:58;;;;;;;6.63;1.08;;;26.20;99.90;;;;;;5077594;28;20254;-73
2022/01/30 07:55:29;;;;;;;4.70;1.00;;;26.10;99.90;;;;;;5076974;28;20600;-73
2022/01/30 07:57:59;;;;;;;7.68;1.55;;;26.10;99.90;;;;;;5078996;28;20647;-72
2022/01/30 08:00:32;;;;;;;6.15;1.13;;;26.10;99.90;;;;;;5077806;28;20675;-73
2022/01/30 08:03:03;;;;;;;7.13;2.00;;;26.00;99.90;;;;;;5077147;28;20204;-71
2022/01/30 08:05:33;;;;;;;8.77;1.95;;;26.00;99.90;;;;;;5075731;28;20204;-73
2022/01/30 08:08:04;;;;;;;6.65;1.27;;;26.00;99.90;;;;;;5078054;28;20189;-72
2022/01/30 08:10:35;;;;;;;9.27;1.80;;;26.00;99.90;;;;;;5073650;28;20188;-73
2022/01/30 08:13:05;;;;;;;7.35;1.25;;;25.90;99.90;;;;;;5079700;28;20560;-73
2022/01/30 08:15:38;;;;;;;8.93;1.50;;;25.90;99.90;;;;;;5078640;28;20197;-73
2022/01/30 08:18:09;;;;;;;5.80;1.10;;;25.90;99.90;;;;;;5075875;28;20554;-72
2022/01/30 08:20:39;;;;;;;6.78;1.45;;;25.80;99.90;;;;;;5077845;28;20201;-74
2022/01/30 08:23:12;;;;;;;11.50;3.40;;;25.80;99.90;;;;;;5082300;28;20185;-72
2022/01/30 08:25:44;;;;;;;8.07;2.05;;;25.70;99.90;;;;;;5076900;28;20575;-72
2022/01/30 08:28:15;;;;;;;7.18;1.60;;;25.60;99.90;;;;;;5082391;28;20241;-72
2022/01/30 08:30:47;;;;;;;6.38;1.40;;;25.50;99.90;;;;;;5080272;28;20198;-73
2022/01/30 08:33:19;;;;;;;6.13;1.25;;;25.50;99.90;;;;;;5087065;28;20554;-73
2022/01/30 08:35:50;;;;;;;10.98;1.95;;;25.40;99.90;;;;;;5081355;28;20200;-72
2022/01/30 08:38:21;;;;;;;6.80;1.30;;;25.40;99.90;;;;;;5076088;28;20659;-72
2022/01/30 08:40:51;;;;;;;8.52;1.70;;;25.40;99.90;;;;;;5077554;28;20200;-73
2022/01/30 08:43:22;;;;;;;8.35;2.17;;;25.30;99.90;;;;;;5077009;28;20219;-71
2022/01/30 08:45:55;;;;;;;9.13;3.17;;;25.30;99.90;;;;;;5085193;28;20679;-72
2022/01/30 08:48:26;;;;;;;9.05;1.85;;;25.20;99.90;;;;;;5080448;28;20185;-73
2022/01/30 08:50:56;;;;;;;7.95;1.80;;;25.20;99.90;;;;;;5081968;28;20188;-72
2022/01/30 08:53:27;;;;;;;9.20;1.83;;;25.10;99.90;;;;;;5085657;28;20199;-72
2022/01/30 08:55:58;;;;;;;8.82;1.60;;;25.10;99.90;;;;;;5082930;28;20228;-73
2022/01/30 08:58:29;;;;;;;10.90;1.80;;;25.10;99.90;;;;;;5092685;28;20282;-72
2022/01/30 09:01:02;;;;;;;6.45;1.50;;;25.10;99.90;;;;;;5078138;28;20193;-73
2022/01/30 09:03:33;;;;;;;8.43;1.80;;;25.00;99.90;;;;;;5079631;28;20193;-73
2022/01/30 09:06:03;;;;;;;7.03;1.33;;;25.00;99.90;;;;;;5076897;28;20270;-72
2022/01/30 09:08:34;;;;;;;7.70;1.15;;;25.00;99.90;;;;;;5081914;28;20250;-72
2022/01/30 09:11:05;;;;;;;7.65;1.20;;;25.00;99.90;;;;;;5080025;28;20186;-72
2022/01/30 09:13:36;;;;;;;9.63;1.70;;;25.00;99.90;;;;;;5078290;28;20221;-72
2022/01/30 09:16:10;;;;;;;6.15;1.30;;;24.90;99.90;;;;;;5075539;28;20197;-72
2022/01/30 09:18:41;;;;;;;11.25;1.38;;;24.90;99.90;;;;;;5087003;28;20185;-72
2022/01/30 09:21:11;;;;;;;8.45;1.50;;;24.90;99.90;;;;;;5088660;28;20195;-72
2022/01/30 09:23:42;;;;;;;10.85;1.60;;;24.90;99.90;;;;;;5086581;28;20203;-72
2022/01/30 09:26:13;;;;;;;8.27;1.25;;;24.90;99.90;;;;;;5083893;28;20216;-72
2022/01/30 09:28:43;;;;;;;7.05;1.25;;;24.80;99.90;;;;;;5086042;28;20193;-72
2022/01/30 09:31:16;;;;;;;6.72;1.38;;;24.90;99.90;;;;;;5085377;28;20270;-72
2022/01/30 09:33:47;;;;;;;6.43;1.45;;;24.90;99.90;;;;;;5074945;28;20189;-72
2022/01/30 09:36:17;;;;;;;8.57;1.45;;;24.90;99.90;;;;;;5074723;28;20189;-72
2022/01/30 09:38:50;;;;;;;7.50;1.48;;;24.90;99.90;;;;;;5080239;28;20233;-73
2022/01/30 09:41:25;;;;;;;8.82;1.33;;;24.80;99.90;;;;;;5080913;28;20228;-72
2022/01/30 09:43:57;;;;;;;9.60;1.30;;;24.80;99.90;;;;;;5090334;28;20254;-77
2022/01/30 09:46:32;;;;;;;7.80;1.45;;;24.80;99.90;;;;;;5090531;28;20698;-76
2022/01/30 09:49:05;;;;;;;10.23;1.50;;;24.80;99.90;;;;;;5085448;28;20275;-76
2022/01/30 09:51:36;;;;;;;7.45;1.40;;;24.80;99.90;;;;;;5090161;28;20677;-76
2022/01/30 09:54:08;;;;;;;8.55;1.40;;;24.80;99.90;;;;;;5079008;28;20189;-76
2022/01/30 09:56:39;;;;;;;10.75;1.48;;;24.80;99.90;;;;;;5075441;28;20224;-75
2022/01/30 09:59:10;;;;;;;9.27;1.67;;;24.70;99.90;;;;;;5086093;28;20228;-76
2022/01/30 10:01:42;;;;;;;8.40;1.60;;;24.70;99.90;;;;;;5081232;28;20222;-75
2022/01/30 10:04:13;;;;;;;6.07;1.15;;;24.70;99.90;;;;;;5080038;28;20189;-76
2022/01/30 10:07:01;;;;;;;10.82;1.63;;;24.70;99.90;;;;;;5081938;28;20213;-75
2022/01/30 10:09:42;;;;;;;10.35;1.30;;;24.70;99.90;;;;;;5080283;28;20185;-75
2022/01/30 10:12:16;;;;;;;8.50;1.40;;;24.60;99.90;;;;;;5073121;28;20276;-76
2022/01/30 10:15:04;;;;;;;9.75;1.20;;;24.60;99.90;;;;;;5073478;28;20229;-76
2022/01/30 10:17:38;;;;;;;9.18;1.55;;;24.60;99.90;;;;;;5079190;28;20196;-76
2022/01/30 10:20:14;;;;;;;9.25;1.30;;;24.60;99.90;;;;;;5070594;28;20648;-76
2022/01/30 10:22:52;;;;;;;8.45;1.35;;;24.60;99.90;;;;;;5072253;28;20184;-76
2022/01/30 10:25:27;;;;;;;8.65;1.52;;;24.60;99.90;;;;;;5077070;28;20195;-76
2022/01/30 10:28:12;;;;;;;6.40;1.13;;;24.60;99.90;;;;;;5076317;28;20585;-75
2022/01/30 10:30:48;;;;;;;4.53;1.17;;;24.60;99.90;;;;;;5089114;28;20249;-77
2022/01/30 10:33:21;;;;;;;10.15;1.35;;;24.60;99.90;;;;;;5075570;28;20188;-74
2022/01/30 10:35:54;;;;;;;7.47;1.13;;;24.50;99.90;;;;;;5092115;28;20192;-75
2022/01/30 10:38:29;;;;;;;7.43;1.20;;;24.50;99.90;;;;;;5075493;28;20216;-76
2022/01/30 10:41:10;;;;;;;10.50;1.40;;;24.50;99.90;;;;;;5079014;28;20585;-77
2022/01/30 10:43:58;;;;;;;9.48;1.45;;;24.50;99.90;;;;;;5088785;28;20223;-74
2022/01/30 10:46:31;;;;;;;7.65;1.15;;;24.50;99.90;;;;;;5073606;28;20208;-76
2022/01/30 10:49:05;;;;;;;8.95;1.33;;;24.50;99.90;;;;;;5075453;28;20645;-73
2022/01/30 10:51:36;;;;;;;6.90;1.10;;;24.50;99.90;;;;;;5080741;28;20182;-74
2022/01/30 10:54:10;;;;;;;7.65;1.15;;;24.50;99.90;;;;;;5073996;28;20247;-75
2022/01/30 10:56:41;;;;;;;7.47;1.40;;;24.50;99.90;;;;;;5079500;28;20223;-76
2022/01/30 10:59:15;;;;;;;5.78;1.20;;;24.40;99.90;;;;;;5080757;28;20225;-76
2022/01/30 11:01:47;;;;;;;8.10;1.30;;;24.40;99.90;;;;;;5082435;28;20239;-76
2022/01/30 11:04:30;;;;;;;7.15;1.15;;;24.40;99.90;;;;;;5073162;28;20197;-76
2022/01/30 11:07:04;;;;;;;8.43;1.38;;;24.40;99.90;;;;;;5078350;28;20212;-76
2022/01/30 11:09:39;;;;;;;6.50;1.27;;;24.40;99.90;;;;;;5073744;28;20185;-75
2022/01/30 11:12:14;;;;;;;6.78;1.20;;;24.40;99.90;;;;;;5077343;28;20188;-74
2022/01/30 11:15:04;;;;;;;7.45;1.17;;;24.40;99.90;;;;;;5073261;28;20188;-76
2022/01/30 11:17:35;;;;;;;9.68;1.33;;;24.40;99.90;;;;;;5079990;28;20645;-75
2022/01/30 11:20:08;;;;;;;6.32;1.30;;;24.30;99.90;;;;;;5080535;28;20181;-76
2022/01/30 11:22:41;;;;;;;9.07;1.20;;;24.30;99.90;;;;;;5085393;28;20187;-76
2022/01/30 11:25:12;;;;;;;11.40;1.40;;;24.30;99.90;;;;;;5072622;28;20185;-75
2022/01/30 11:27:46;;;;;;;7.13;1.27;;;24.30;99.90;;;;;;5070630;28;20684;-76
2022/01/30 11:30:17;;;;;;;8.75;1.70;;;24.30;99.90;;;;;;5082314;28;20180;-76
2022/01/30 11:32:48;;;;;;;6.13;1.10;;;24.30;99.90;;;;;;5076552;28;20671;-76
2022/01/30 11:35:21;;;;;;;6.25;1.38;;;24.20;99.90;;;;;;5083544;28;20189;-76
2022/01/30 11:37:53;;;;;;;9.43;1.20;;;24.20;99.90;;;;;;5072334;28;20246;-76
2022/01/30 11:40:24;;;;;;;8.18;1.40;;;24.20;99.90;;;;;;5083446;28;20207;-76
2022/01/30 11:42:55;;;;;;;7.57;1.73;;;24.10;99.90;;;;;;5074052;28;20188;-75
2022/01/30 11:45:27;;;;;;;8.75;1.13;;;24.10;99.90;;;;;;5088148;28;20192;-75
2022/01/30 11:48:00;;;;;;;6.32;1.27;;;24.20;99.90;;;;;;5077389;28;20247;-74
2022/01/30 11:50:33;;;;;;;7.68;1.23;;;24.10;99.90;;;;;;5076386;28;20729;-76
2022/01/30 11:53:06;;;;;;;7.60;1.20;;;24.10;99.90;;;;;;5085182;28;20195;-77
2022/01/30 11:55:54;;;;;;;5.43;0.93;;;24.10;99.90;;;;;;5089278;28;20228;-76
2022/01/30 11:58:49;;;;;;;7.47;1.17;;;24.10;99.90;;;;;;5092531;28;20249;-76
2022/01/30 12:01:39;;;;;;;10.23;1.52;;;24.10;99.90;;;;;;5089882;28;20187;-75
2022/01/30 12:04:18;;;;;;;6.20;1.10;;;24.10;99.90;;;;;;5084773;28;20533;-76
2022/01/30 12:06:53;;;;;;;9.00;1.42;;;24.10;99.90;;;;;;5086495;28;20695;-76
2022/01/30 12:09:29;;;;;;;6.25;1.52;;;24.10;99.90;;;;;;5087204;28;20189;-76
2022/01/30 12:12:10;;;;;;;6.97;1.45;;;24.10;99.90;;;;;;5091711;28;20191;-76
2022/01/30 12:14:58;;;;;;;7.57;1.42;;;24.10;99.90;;;;;;5077476;28;20798;-76
2022/01/30 12:18:01;;;;;;;9.63;1.30;;;24.10;99.90;;;;;;5087700;28;20192;-76
2022/01/30 12:20:34;;;;;;;9.43;1.23;;;24.10;99.90;;;;;;5085699;28;20244;-75
2022/01/30 12:23:06;;;;;;;11.25;1.42;;;24.10;99.90;;;;;;5090884;28;20317;-75
2022/01/30 12:25:39;;;;;;;11.70;1.55;;;24.00;99.90;;;;;;5083841;28;20234;-74
2022/01/30 12:28:16;;;;;;;9.40;1.30;;;24.00;99.90;;;;;;5079600;28;20213;-76
2022/01/30 12:30:50;;;;;;;5.40;1.20;;;24.00;99.90;;;;;;5077337;28;20636;-76
2022/01/30 12:33:51;;;;;;;9.52;1.33;;;24.00;99.90;;;;;;5077820;28;20195;-75
2022/01/30 12:36:25;;;;;;;6.63;1.50;;;24.00;99.90;;;;;;5083253;28;20706;-76
2022/01/30 12:39:07;;;;;;;6.72;1.15;;;24.00;99.90;;;;;;5090568;28;20600;-74
2022/01/30 12:41:41;;;;;;;11.18;1.58;;;24.00;99.90;;;;;;5075808;28;20656;-72
2022/01/30 12:44:13;;;;;;;6.45;1.33;;;24.00;99.90;;;;;;5084617;28;20197;-75
2022/01/30 12:46:48;;;;;;;7.03;1.40;;;24.00;99.90;;;;;;5076835;28;20687;-74
2022/01/30 12:49:22;;;;;;;6.47;1.17;;;24.00;99.90;;;;;;5080667;28;20279;-75
2022/01/30 12:51:55;;;;;;;9.90;1.48;;;23.90;99.90;;;;;;5085279;28;20192;-72
2022/01/30 12:54:29;;;;;;;12.13;1.60;;;23.90;99.90;;;;;;5088031;28;20204;-73
2022/01/30 12:57:00;;;;;;;7.88;1.30;;;23.90;99.90;;;;;;5086249;28;20319;-72
2022/01/30 12:59:36;;;;;;;5.40;1.20;;;23.90;99.90;;;;;;5086489;28;20224;-74
2022/01/30 13:02:10;;;;;;;13.35;1.55;;;23.90;99.90;;;;;;5089578;28;20190;-72
2022/01/30 13:04:40;;;;;;;7.75;1.30;;;23.90;99.90;;;;;;5077670;28;20208;-76
2022/01/30 13:07:15;;;;;;;8.63;1.85;;;23.80;99.90;;;;;;5083047;28;20220;-76
2022/01/30 13:09:48;;;;;;;9.35;1.40;;;23.80;99.90;;;;;;5085687;28;20258;-72
2022/01/30 13:12:20;;;;;;;12.07;1.67;;;23.80;99.90;;;;;;5086112;28;20276;-74
2022/01/30 13:14:53;;;;;;;8.20;1.52;;;23.80;99.90;;;;;;5083030;28;20602;-76
2022/01/30 13:17:34;;;;;;;6.93;1.23;;;23.70;99.90;;;;;;5091765;28;20208;-76
2022/01/30 13:20:05;;;;;;;9.32;1.60;;;23.70;99.90;;;;;;5084816;28;20193;-74
2022/01/30 13:22:40;;;;;;;6.15;1.30;;;23.80;99.90;;;;;;5086836;28;20253;-77
2022/01/30 13:25:14;;;;;;;6.60;1.20;;;23.70;99.90;;;;;;5090029;28;20272;-75
2022/01/30 13:27:50;;;;;;;5.40;1.30;;;23.70;99.90;;;;;;5085506;28;20587;-72
2022/01/30 13:30:23;;;;;;;7.75;1.70;;;23.70;99.90;;;;;;5082033;28;20206;-74
2022/01/30 13:32:56;;;;;;;8.75;1.15;;;23.70;99.90;;;;;;5090480;28;20191;-73
2022/01/30 13:35:29;;;;;;;7.90;1.35;;;23.70;99.90;;;;;;5087046;28;20197;-76
2022/01/30 13:38:05;;;;;;;8.75;1.60;;;23.60;99.90;;;;;;5085100;28;20192;-76
2022/01/30 13:40:54;;;;;;;6.50;1.35;;;23.60;99.90;;;;;;5091355;28;20184;-76
2022/01/30 13:43:30;;;;;;;10.73;1.55;;;23.60;99.90;;;;;;5080012;28;20231;-76
2022/01/30 13:48:53;;;;;;;7.65;1.20;;;23.60;99.90;;;;;;5088602;28;20273;-74
2022/01/30 13:51:27;;;;;;;6.80;1.30;;;23.60;99.90;;;;;;5090333;28;20200;-73
2022/01/30 13:54:09;;;;;;;8.02;1.55;;;23.50;99.90;;;;;;5089824;28;21211;-74